createdAt,value
2018-02-17T00:00:28.602Z,12.10
2018-02-17T00:02:58.068Z,18.85
2018-02-17T00:05:27.573Z,14.82
2018-02-17T00:07:57.462Z,12.85
2018-02-17T00:10:26.994Z,16.65
2018-02-17T00:12:56.656Z,17.67
2018-02-17T00:15:26.156Z,16.55
2018-02-17T00:17:55.701Z,12.52
2018-02-17T00:20:25.183Z,17.83
2018-02-17T00:22:54.711Z,14.90
2018-02-17T00:25:24.164Z,19.70
2018-02-17T00:27:53.682Z,18.55
2018-02-17T00:30:23.148Z,13.38
2018-02-17T00:32:52.675Z,16.17
2018-02-17T00:35:22.194Z,15.00
2018-02-17T00:37:51.687Z,14.02
2018-02-17T00:40:21.262Z,14.85
2018-02-17T00:42:50.715Z,17.27
2018-02-17T00:45:20.237Z,19.17
2018-02-17T00:47:49.708Z,14.80
2018-02-17T00:50:19.242Z,21.05
2018-02-17T00:52:48.759Z,15.70
2018-02-17T00:55:18.221Z,14.57
2018-02-17T00:57:47.747Z,17.58
2018-02-17T01:00:17.219Z,17.33
2018-02-17T01:02:46.795Z,17.62
2018-02-17T01:05:16.277Z,17.75
2018-02-17T01:07:45.783Z,19.40
2018-02-17T01:10:15.317Z,19.62
2018-02-17T01:12:44.799Z,22.48
2018-02-17T01:15:14.314Z,16.27
2018-02-17T01:17:43.791Z,23.95
2018-02-17T01:20:13.348Z,16.58
2018-02-17T01:22:42.878Z,20.65
2018-02-17T01:25:12.410Z,19.65
2018-02-17T01:27:41.913Z,22.17
2018-02-17T01:30:11.645Z,21.27
2018-02-17T01:32:41.194Z,18.48
2018-02-17T01:35:10.975Z,18.40
2018-02-17T01:37:40.550Z,17.55
2018-02-17T01:40:10.228Z,17.05
2018-02-17T01:42:39.789Z,19.20
2018-02-17T01:45:09.489Z,16.20
2018-02-17T01:47:38.989Z,20.35
2018-02-17T01:50:14.346Z,17.83
2018-02-17T01:52:43.832Z,22.80
2018-02-17T01:55:13.356Z,19.92
2018-02-17T01:57:43.162Z,20.17
2018-02-17T02:00:12.712Z,19.62
2018-02-17T02:02:42.176Z,19.02
2018-02-17T02:05:11.799Z,23.80
2018-02-17T02:07:41.254Z,17.75
2018-02-17T02:10:10.946Z,20.60
2018-02-17T02:12:40.518Z,18.33
2018-02-17T02:15:10.186Z,17.15
2018-02-17T02:17:39.724Z,22.30
2018-02-17T02:20:09.394Z,16.60
2018-02-17T02:22:38.937Z,20.98
2018-02-17T02:25:08.595Z,17.52
2018-02-17T02:27:38.152Z,17.30
2018-02-17T02:30:07.818Z,20.83
2018-02-17T02:32:37.380Z,22.00
2018-02-17T02:35:07.052Z,19.92
2018-02-17T02:37:36.615Z,22.58
2018-02-17T02:40:06.360Z,24.95
2018-02-17T02:42:35.894Z,17.67
2018-02-17T02:45:05.564Z,22.60
2018-02-17T02:47:35.052Z,22.48
2018-02-17T02:50:04.762Z,23.20
2018-02-17T02:52:34.269Z,20.33
2018-02-17T02:55:04.012Z,26.87
2018-02-17T02:57:33.564Z,27.15
2018-02-17T03:00:03.272Z,26.12
2018-02-17T03:02:32.832Z,23.83
2018-02-17T03:05:02.402Z,28.98
2018-02-17T03:07:31.932Z,28.05
2018-02-17T03:10:01.458Z,26.35
2018-02-17T03:12:30.963Z,22.95
2018-02-17T03:15:00.444Z,25.12
2018-02-17T03:17:29.962Z,26.85
2018-02-17T03:19:59.452Z,30.42
2018-02-17T03:22:28.965Z,24.70
2018-02-17T03:24:58.415Z,23.27
2018-02-17T03:27:27.893Z,27.98
2018-02-17T03:29:57.410Z,27.45
2018-02-17T03:32:26.893Z,30.17
2018-02-17T03:34:56.418Z,31.65
2018-02-17T03:37:25.900Z,23.62
2018-02-17T03:39:55.493Z,28.42
2018-02-17T03:42:24.974Z,26.73
2018-02-17T03:44:54.516Z,23.95
2018-02-17T03:47:24.016Z,25.33
2018-02-17T03:49:53.537Z,26.70
2018-02-17T03:52:23.121Z,30.75
2018-02-17T03:54:52.640Z,33.15
2018-02-17T03:57:22.135Z,28.95
2018-02-17T03:59:51.613Z,26.70
2018-02-17T04:02:21.134Z,31.52
2018-02-17T04:04:50.594Z,30.67
2018-02-17T04:07:20.110Z,30.80
2018-02-17T04:09:49.600Z,26.10
2018-02-17T04:12:19.101Z,27.95
2018-02-17T04:14:48.585Z,32.70
2018-02-17T04:17:18.102Z,35.17
2018-02-17T04:19:47.576Z,33.92
2018-02-17T04:22:17.089Z,26.70
2018-02-17T04:24:46.562Z,34.45
2018-02-17T04:27:16.083Z,31.85
2018-02-17T04:29:45.584Z,36.65
2018-02-17T04:32:15.117Z,34.70
2018-02-17T04:34:44.656Z,39.83
2018-02-17T04:37:14.124Z,34.83
2018-02-17T04:39:46.354Z,40.50
2018-02-17T04:42:15.834Z,39.42
2018-02-17T04:44:47.948Z,31.35
2018-02-17T04:47:34.254Z,38.63
2018-02-17T04:50:19.435Z,46.13
2018-02-17T04:52:49.446Z,36.85
2018-02-17T04:55:26.544Z,45.65
2018-02-17T04:57:57.824Z,43.55
2018-02-17T05:00:32.903Z,43.87
2018-02-17T05:03:02.955Z,45.88
2018-02-17T05:05:49.132Z,39.67
2018-02-17T05:08:30.537Z,39.70
2018-02-17T05:11:00.024Z,41.15
2018-02-17T05:13:29.542Z,42.72
2018-02-17T05:16:13.897Z,37.80
2018-02-17T05:18:49.065Z,36.47
2018-02-17T05:21:22.316Z,39.72
2018-02-17T05:23:52.565Z,40.10
2018-02-17T05:26:25.830Z,37.25
2018-02-17T05:28:56.969Z,39.10
2018-02-17T05:31:44.227Z,40.20
2018-02-17T05:34:29.589Z,38.72
2018-02-17T05:36:59.144Z,42.03
2018-02-17T05:39:31.307Z,44.20
2018-02-17T05:42:06.689Z,46.90
2018-02-17T05:44:36.880Z,38.65
2018-02-17T05:47:07.978Z,38.40
2018-02-17T05:49:39.409Z,39.97
2018-02-17T05:52:09.099Z,40.03
2018-02-17T05:54:38.579Z,48.92
2018-02-17T05:57:08.090Z,45.28
2018-02-17T05:59:37.560Z,38.67
2018-02-17T06:02:07.070Z,40.05
2018-02-17T06:04:36.566Z,37.63
2018-02-17T06:07:06.110Z,52.50
2018-02-17T06:09:35.631Z,45.47
2018-02-17T06:12:05.140Z,58.38
2018-02-17T06:14:34.607Z,42.78
2018-02-17T06:17:04.136Z,46.78
2018-02-17T06:19:33.603Z,47.42
2018-02-17T06:22:03.118Z,52.00
2018-02-17T06:24:32.604Z,46.67
2018-02-17T06:27:02.132Z,45.53
2018-02-17T06:29:31.587Z,42.25
2018-02-17T06:32:01.095Z,40.17
2018-02-17T06:34:30.576Z,35.40
2018-02-17T06:37:00.077Z,46.05
2018-02-17T06:39:29.587Z,46.00
2018-02-17T06:41:59.072Z,40.95
2018-02-17T06:44:28.569Z,40.35
2018-02-17T06:46:58.079Z,41.47
2018-02-17T06:49:27.589Z,44.33
2018-02-17T06:51:57.150Z,43.92
2018-02-17T06:54:26.685Z,39.42
2018-02-17T06:56:56.173Z,39.55
2018-02-17T06:59:25.690Z,41.42
2018-02-17T07:01:55.165Z,49.88
2018-02-17T07:04:24.668Z,79.07
2018-02-17T07:06:54.144Z,86.53
2018-02-17T07:09:23.655Z,61.13
2018-02-17T07:11:53.159Z,48.70
2018-02-17T07:14:22.637Z,46.95
2018-02-17T07:16:52.155Z,40.12
2018-02-17T07:19:21.635Z,46.75
2018-02-17T07:21:51.157Z,40.00
2018-02-17T07:24:20.636Z,39.47
2018-02-17T07:26:50.136Z,43.00
2018-02-17T07:29:19.621Z,40.05
2018-02-17T07:31:49.140Z,39.83
2018-02-17T07:34:18.614Z,39.88
2018-02-17T07:36:48.148Z,33.10
2018-02-17T07:39:17.626Z,40.63
2018-02-17T07:41:47.124Z,38.33
2018-02-17T07:44:16.634Z,35.60
2018-02-17T07:46:46.144Z,40.22
2018-02-17T07:49:15.614Z,38.05
2018-02-17T07:51:45.120Z,43.17
2018-02-17T07:54:14.646Z,34.75
2018-02-17T07:56:44.171Z,36.47
2018-02-17T07:59:13.643Z,41.42
2018-02-17T08:01:43.161Z,45.63
2018-02-17T08:04:12.620Z,36.50
2018-02-17T08:06:42.139Z,41.30
2018-02-17T08:09:11.593Z,33.40
2018-02-17T08:11:41.119Z,36.08
2018-02-17T08:14:10.812Z,37.72
2018-02-17T08:16:40.313Z,34.42
2018-02-17T08:19:09.823Z,30.20
2018-02-17T08:21:39.315Z,34.95
2018-02-17T08:24:08.922Z,30.95
2018-02-17T08:26:38.455Z,31.98
2018-02-17T08:29:07.959Z,35.38
2018-02-17T08:31:37.455Z,33.10
2018-02-17T08:34:06.959Z,37.83
2018-02-17T08:36:36.417Z,31.77
2018-02-17T08:39:05.921Z,31.05
2018-02-17T08:41:35.422Z,32.70
2018-02-17T08:44:04.920Z,34.38
2018-02-17T08:46:34.451Z,33.20
2018-02-17T08:49:03.971Z,30.85
2018-02-17T08:51:33.548Z,32.40
2018-02-17T08:54:03.042Z,27.80
2018-02-17T08:56:32.582Z,30.67
2018-02-17T08:59:02.092Z,29.23
2018-02-17T09:01:31.581Z,25.67
2018-02-17T09:04:01.096Z,28.27
2018-02-17T09:06:30.600Z,29.12
2018-02-17T09:09:00.189Z,38.25
2018-02-17T09:11:29.911Z,34.47
2018-02-17T09:13:59.428Z,39.80
2018-02-17T09:16:28.942Z,31.33
2018-02-17T09:18:58.425Z,21.50
2018-02-17T09:21:28.041Z,29.23
2018-02-17T09:23:57.569Z,23.80
2018-02-17T09:26:27.078Z,20.45
2018-02-17T09:28:56.634Z,25.42
2018-02-17T09:31:26.167Z,20.95
2018-02-17T09:33:55.694Z,23.25
2018-02-17T09:36:26.019Z,26.83
2018-02-17T09:38:55.517Z,33.20
2018-02-17T09:41:25.029Z,25.48
2018-02-17T09:43:54.622Z,22.35
2018-02-17T09:46:24.208Z,21.08
2018-02-17T09:48:53.709Z,31.42
2018-02-17T09:51:23.187Z,29.30
2018-02-17T09:53:52.855Z,24.65
2018-02-17T09:56:22.313Z,25.30
2018-02-17T09:58:51.852Z,25.15
2018-02-17T10:01:21.343Z,19.15
2018-02-17T10:03:50.862Z,24.95
2018-02-17T10:06:20.344Z,23.75
2018-02-17T10:08:49.878Z,25.00
2018-02-17T10:11:19.368Z,27.52
2018-02-17T10:13:48.885Z,27.10
2018-02-17T10:16:18.356Z,28.45
2018-02-17T10:18:48.021Z,26.90
2018-02-17T10:21:17.578Z,22.00
2018-02-17T10:23:47.087Z,25.65
2018-02-17T10:26:16.604Z,32.80
2018-02-17T10:28:46.089Z,32.55
2018-02-17T10:31:15.590Z,32.60
2018-02-17T10:33:45.073Z,26.50
2018-02-17T10:36:14.597Z,25.25
2018-02-17T10:38:44.108Z,23.73
2018-02-17T10:41:13.616Z,30.30
2018-02-17T10:43:43.100Z,25.33
2018-02-17T10:46:12.617Z,28.83
2018-02-17T10:48:42.103Z,27.90
2018-02-17T10:51:11.697Z,27.23
2018-02-17T10:53:41.164Z,28.23
2018-02-17T10:56:10.672Z,31.67
2018-02-17T10:58:40.322Z,29.02
2018-02-17T11:01:09.818Z,28.40
2018-02-17T11:03:39.316Z,26.58
2018-02-17T11:06:08.833Z,25.62
2018-02-17T11:08:38.282Z,25.40
2018-02-17T11:11:07.802Z,21.85
2018-02-17T11:13:37.311Z,24.75
2018-02-17T11:16:06.853Z,27.52
2018-02-17T11:18:36.311Z,25.55
2018-02-17T11:21:05.919Z,23.02
2018-02-17T11:23:35.404Z,26.02
2018-02-17T11:26:04.873Z,30.60
2018-02-17T11:28:34.394Z,27.58
2018-02-17T11:31:03.932Z,31.95
2018-02-17T11:33:33.404Z,32.97
2018-02-17T11:36:03.000Z,29.45
2018-02-17T11:38:32.467Z,27.42
2018-02-17T11:41:01.979Z,23.75
2018-02-17T11:43:31.473Z,31.40
2018-02-17T11:46:00.979Z,30.98
2018-02-17T11:48:30.482Z,26.67
2018-02-17T11:50:59.993Z,28.87
2018-02-17T11:53:29.463Z,28.77
2018-02-17T11:55:58.985Z,24.75
2018-02-17T11:58:28.483Z,26.33
2018-02-17T12:00:57.988Z,32.15
2018-02-17T12:03:27.472Z,31.48
2018-02-17T12:05:57.466Z,30.83
2018-02-17T12:08:27.005Z,29.87
2018-02-17T12:10:56.648Z,28.95
2018-02-17T12:13:26.155Z,31.62
2018-02-17T12:15:55.633Z,30.48
2018-02-17T12:18:25.165Z,25.75
2018-02-17T12:20:54.755Z,27.52
2018-02-17T12:23:24.256Z,28.48
2018-02-17T12:25:53.768Z,21.98
2018-02-17T12:28:23.297Z,24.95
2018-02-17T12:30:52.813Z,26.87
2018-02-17T12:33:22.512Z,23.50
2018-02-17T12:35:51.972Z,25.45
2018-02-17T12:38:21.493Z,20.40
2018-02-17T12:40:50.979Z,20.08
2018-02-17T12:43:20.492Z,30.15
2018-02-17T12:45:50.019Z,20.40
2018-02-17T12:48:19.543Z,23.33
2018-02-17T12:50:49.041Z,21.58
2018-02-17T12:53:18.633Z,34.88
2018-02-17T12:55:48.067Z,29.92
2018-02-17T12:58:17.597Z,24.55
2018-02-17T13:00:47.130Z,20.83
2018-02-17T13:03:16.718Z,22.52
2018-02-17T13:05:46.341Z,21.10
2018-02-17T13:08:15.837Z,23.23
2018-02-17T13:10:45.320Z,20.83
2018-02-17T13:13:14.806Z,19.83
2018-02-17T13:15:44.311Z,19.73
2018-02-17T13:18:13.833Z,24.42
2018-02-17T13:20:43.309Z,24.33
2018-02-17T13:23:12.861Z,25.70
2018-02-17T13:25:42.387Z,22.42
2018-02-17T13:28:17.710Z,23.27
2018-02-17T13:30:47.192Z,24.33
2018-02-17T13:33:16.709Z,19.95
2018-02-17T13:35:46.228Z,29.20
2018-02-17T13:38:15.703Z,22.73
2018-02-17T13:40:45.221Z,24.35
2018-02-17T13:43:14.685Z,28.20
2018-02-17T13:45:44.183Z,20.48
2018-02-17T13:48:13.687Z,21.62
2018-02-17T13:50:43.200Z,27.40
2018-02-17T13:53:12.849Z,22.02
2018-02-17T13:55:42.517Z,21.62
2018-02-17T13:58:12.044Z,22.05
2018-02-17T14:00:41.498Z,24.48
2018-02-17T14:03:11.034Z,18.83
2018-02-17T14:05:40.514Z,24.00
2018-02-17T14:08:10.040Z,20.35
2018-02-17T14:10:39.528Z,24.67
2018-02-17T14:13:09.004Z,22.50
2018-02-17T14:15:38.538Z,24.20
2018-02-17T14:18:08.046Z,23.85
2018-02-17T14:20:37.541Z,24.87
2018-02-17T14:23:07.057Z,21.45
2018-02-17T14:25:36.573Z,23.38
2018-02-17T14:28:06.124Z,23.98
2018-02-17T14:30:35.667Z,27.87
2018-02-17T14:33:05.258Z,26.02
2018-02-17T14:35:34.756Z,27.20
2018-02-17T14:38:04.231Z,21.67
2018-02-17T14:40:33.771Z,19.08
2018-02-17T14:43:03.241Z,22.10
2018-02-17T14:45:32.802Z,23.27
2018-02-17T14:48:02.277Z,22.10
2018-02-17T14:50:31.744Z,20.00
2018-02-17T14:53:01.264Z,22.15
2018-02-17T14:55:30.778Z,24.85
2018-02-17T14:58:00.291Z,16.15
2018-02-17T15:00:29.750Z,20.30
2018-02-17T15:02:59.262Z,14.43
2018-02-17T15:05:28.745Z,19.15
2018-02-17T15:07:58.293Z,18.05
2018-02-17T15:10:27.782Z,14.82
2018-02-17T15:12:57.300Z,12.95
2018-02-17T15:15:26.792Z,26.60
2018-02-17T15:17:56.342Z,17.92
2018-02-17T15:20:25.807Z,13.80
2018-02-17T15:22:55.450Z,10.55
2018-02-17T15:25:24.960Z,11.65
2018-02-17T15:27:54.438Z,19.37
2018-02-17T15:30:23.949Z,19.12
2018-02-17T15:32:53.417Z,18.98
2018-02-17T15:35:22.931Z,17.75
2018-02-17T15:37:52.431Z,18.02
2018-02-17T15:40:21.901Z,13.82
2018-02-17T15:42:51.431Z,19.25
2018-02-17T15:45:20.991Z,14.87
2018-02-17T15:47:50.493Z,16.80
2018-02-17T15:50:20.111Z,16.50
2018-02-17T15:52:49.643Z,31.58
2018-02-17T15:55:19.119Z,14.60
2018-02-17T15:57:48.886Z,13.57
2018-02-17T16:00:18.394Z,11.05
2018-02-17T16:02:47.890Z,14.82
2018-02-17T16:05:17.398Z,20.12
2018-02-17T16:07:46.908Z,11.75
2018-02-17T16:10:16.399Z,15.10
2018-02-17T16:12:45.893Z,15.55
2018-02-17T16:15:15.410Z,13.13
2018-02-17T16:17:44.888Z,16.25
2018-02-17T16:20:14.472Z,15.95
2018-02-17T16:22:44.124Z,18.92
2018-02-17T16:25:13.783Z,16.17
2018-02-17T16:27:43.283Z,15.35
2018-02-17T16:30:12.825Z,16.12
2018-02-17T16:32:42.344Z,18.75
2018-02-17T16:35:12.132Z,12.50
2018-02-17T16:37:41.654Z,14.02
2018-02-17T16:40:11.341Z,21.00
2018-02-17T16:42:40.869Z,12.25
2018-02-17T16:45:10.530Z,18.85
2018-02-17T16:47:40.105Z,16.08
2018-02-17T16:50:09.803Z,15.50
2018-02-17T16:52:39.359Z,16.65
2018-02-17T16:55:09.133Z,24.52
2018-02-17T16:57:38.712Z,24.75
2018-02-17T17:00:08.550Z,18.80
2018-02-17T17:02:38.161Z,26.15
2018-02-17T17:05:08.273Z,19.15
2018-02-17T17:07:37.859Z,19.33
2018-02-17T17:10:07.539Z,18.83
2018-02-17T17:12:37.175Z,15.75
2018-02-17T17:15:07.550Z,12.30
2018-02-17T17:17:37.101Z,16.12
2018-02-17T17:20:06.630Z,14.68
2018-02-17T17:22:36.117Z,18.70
2018-02-17T17:25:05.771Z,28.12
2018-02-17T17:27:35.313Z,30.62
2018-02-17T17:30:04.938Z,29.55
2018-02-17T17:32:34.438Z,22.17
2018-02-17T17:35:04.167Z,23.02
2018-02-17T17:37:33.716Z,16.85
2018-02-17T17:40:03.459Z,32.00
2018-02-17T17:42:32.999Z,16.48
2018-02-17T17:45:02.682Z,17.50
2018-02-17T17:47:32.196Z,16.92
2018-02-17T17:50:01.697Z,16.48
2018-02-17T17:52:31.229Z,12.90
2018-02-17T17:55:00.710Z,15.27
2018-02-17T17:57:30.233Z,17.80
2018-02-17T17:59:59.722Z,17.55
2018-02-17T18:02:29.230Z,13.00
2018-02-17T18:04:58.694Z,15.85
2018-02-17T18:07:28.190Z,16.83
2018-02-17T18:09:57.696Z,19.40
2018-02-17T18:12:27.231Z,16.23
2018-02-17T18:14:56.734Z,15.95
2018-02-17T18:17:26.252Z,17.15
2018-02-17T18:19:55.726Z,14.38
2018-02-17T18:22:25.240Z,14.27
2018-02-17T18:24:54.760Z,20.88
2018-02-17T18:27:24.291Z,16.55
2018-02-17T18:29:53.761Z,18.55
2018-02-17T18:32:23.348Z,15.77
2018-02-17T18:34:52.769Z,13.35
2018-02-17T18:37:22.270Z,10.77
2018-02-17T18:39:51.749Z,82.62
2018-02-17T18:42:21.262Z,21.83
2018-02-17T18:44:50.751Z,16.87
2018-02-17T18:47:20.291Z,16.27
2018-02-17T18:49:49.731Z,14.85
2018-02-17T18:52:19.250Z,14.40
2018-02-17T18:54:48.708Z,15.70
2018-02-17T18:57:18.221Z,16.65
2018-02-17T18:59:47.716Z,9.77
2018-02-17T19:02:17.180Z,15.80
2018-02-17T19:04:46.632Z,20.12
2018-02-17T19:07:16.175Z,15.85
2018-02-17T19:09:45.653Z,14.80
2018-02-17T19:12:15.295Z,26.67
2018-02-17T19:14:44.827Z,16.50
2018-02-17T19:17:14.424Z,24.73
2018-02-17T19:19:43.882Z,19.48
2018-02-17T19:22:13.388Z,16.45
2018-02-17T19:24:42.921Z,21.02
2018-02-17T19:27:12.434Z,25.55
2018-02-17T19:29:41.957Z,18.85
2018-02-17T19:32:11.436Z,15.68
2018-02-17T19:34:40.963Z,18.55
2018-02-17T19:37:10.436Z,13.50
2018-02-17T19:39:39.975Z,14.57
2018-02-17T19:42:09.479Z,21.50
2018-02-17T19:44:39.597Z,13.80
2018-02-17T19:47:09.210Z,11.68
2018-02-17T19:49:38.740Z,17.85
2018-02-17T19:52:08.260Z,17.45
2018-02-17T19:54:37.712Z,21.15
2018-02-17T19:57:07.247Z,15.40
2018-02-17T19:59:36.791Z,19.27
2018-02-17T20:02:06.245Z,18.95
2018-02-17T20:04:35.725Z,18.23
2018-02-17T20:07:05.367Z,25.30
2018-02-17T20:09:34.892Z,20.45
2018-02-17T20:12:04.396Z,20.25
2018-02-17T20:14:33.912Z,18.70
2018-02-17T20:17:03.397Z,18.55
2018-02-17T20:19:32.940Z,18.58
2018-02-17T20:22:02.423Z,15.57
2018-02-17T20:24:31.972Z,20.00
2018-02-17T20:27:01.491Z,17.33
2018-02-17T20:29:31.107Z,21.17
2018-02-17T20:32:00.700Z,20.75
2018-02-17T20:34:30.276Z,18.27
2018-02-17T20:36:59.922Z,15.68
2018-02-17T20:39:29.435Z,18.77
2018-02-17T20:41:59.457Z,21.37
2018-02-17T20:44:29.373Z,15.77
2018-02-17T20:46:58.911Z,15.75
2018-02-17T20:49:28.429Z,22.10
2018-02-17T20:51:57.924Z,24.17
2018-02-17T20:54:27.431Z,20.05
2018-02-17T20:56:56.960Z,17.73
2018-02-17T20:59:26.444Z,18.33
2018-02-17T21:01:55.969Z,16.10
2018-02-17T21:04:25.486Z,24.70
2018-02-17T21:06:55.039Z,34.72
2018-02-17T21:09:24.510Z,32.55
2018-02-17T21:11:54.095Z,19.73
2018-02-17T21:14:23.606Z,20.58
2018-02-17T21:16:53.377Z,22.85
2018-02-17T21:19:23.026Z,21.62
2018-02-17T21:21:52.486Z,23.08
2018-02-17T21:24:22.041Z,21.70
2018-02-17T21:26:51.510Z,27.37
2018-02-17T21:29:21.028Z,31.60
2018-02-17T21:31:50.516Z,32.25
2018-02-17T21:34:20.053Z,35.97
2018-02-17T21:36:49.520Z,28.35
2018-02-17T21:39:19.048Z,30.30
2018-02-17T21:41:48.583Z,28.27
2018-02-17T21:44:18.090Z,23.62
2018-02-17T21:46:47.572Z,24.15
2018-02-17T21:49:17.085Z,19.55
2018-02-17T21:51:46.590Z,19.17
2018-02-17T21:54:16.079Z,27.25
2018-02-17T21:56:45.652Z,29.35
2018-02-17T21:59:15.148Z,25.08
2018-02-17T22:01:44.701Z,20.17
2018-02-17T22:04:14.212Z,24.70
2018-02-17T22:06:43.737Z,22.98
2018-02-17T22:09:13.282Z,28.70
2018-02-17T22:11:42.800Z,23.60
2018-02-17T22:14:12.276Z,21.10
2018-02-17T22:16:41.758Z,16.52
2018-02-17T22:19:11.284Z,14.20
2018-02-17T22:21:40.779Z,13.75
2018-02-17T22:24:10.313Z,16.17
2018-02-17T22:26:39.831Z,23.58
2018-02-17T22:29:09.350Z,15.35
2018-02-17T22:31:38.843Z,10.38
2018-02-17T22:34:08.360Z,12.93
2018-02-17T22:36:37.843Z,12.27
2018-02-17T22:39:07.354Z,14.27
2018-02-17T22:41:36.825Z,12.20
2018-02-17T22:44:06.328Z,13.80
2018-02-17T22:46:35.857Z,11.63
2018-02-17T22:49:05.365Z,8.50
2018-02-17T22:51:34.893Z,10.15
2018-02-17T22:54:04.369Z,15.23
2018-02-17T22:56:33.871Z,15.30
2018-02-17T22:59:03.542Z,11.12
2018-02-17T23:01:33.056Z,13.73
2018-02-17T23:04:02.551Z,16.70
2018-02-17T23:06:32.082Z,16.27
2018-02-17T23:09:01.565Z,12.88
2018-02-17T23:11:31.077Z,14.40
2018-02-17T23:14:00.556Z,7.87
2018-02-17T23:16:30.087Z,9.55
2018-02-17T23:18:59.552Z,8.45
2018-02-17T23:21:29.086Z,10.07
2018-02-17T23:23:58.558Z,15.07
2018-02-17T23:26:28.089Z,10.15
2018-02-17T23:28:57.575Z,11.52
2018-02-17T23:31:27.066Z,8.43
2018-02-17T23:33:56.543Z,14.60
2018-02-17T23:36:26.051Z,9.02
2018-02-17T23:38:55.514Z,13.62
2018-02-17T23:41:25.154Z,12.50
2018-02-17T23:43:54.629Z,10.10
2018-02-17T23:46:24.132Z,10.07
2018-02-17T23:48:53.626Z,8.30
2018-02-17T23:51:23.107Z,7.57
2018-02-17T23:53:52.627Z,12.00
2018-02-17T23:56:22.091Z,6.90
2018-02-17T23:58:51.600Z,10.35
